Time;durP1;ratioP1;P1;durP2;ratioP2;P2;SDS_P1;SDS_P2;PMS_P1;PMS_P2;Temp;Humidity;BMP_temperature;BMP_pressure;BME280_temperature;BME280_humidity;BME280_pressure;Samples;Min_cycle;Max_cycle;Signal;HPM_P1;HPM_P2
2024/01/07 00:00:20;;;;;;;14.13;9.50;;;;;;;11.05;80.64;93134.25;5073211;28;20216;-64
2024/01/07 00:02:47;;;;;;;13.10;9.27;;;;;;;10.36;80.08;93039.97;5071236;28;20199;-67
2024/01/07 00:05:15;;;;;;;16.77;9.97;;;;;;;10.55;80.00;93059.09;5070880;28;20191;-67
2024/01/07 00:07:42;;;;;;;17.37;11.00;;;;;;;10.91;80.08;93123.06;5069471;28;20195;-66
2024/01/07 00:10:09;;;;;;;13.60;10.13;;;;;;;10.94;79.94;93127.84;5073847;28;20216;-65
2024/01/07 00:12:36;;;;;;;15.20;9.03;;;;;;;10.91;79.71;93117.16;5078836;28;20191;-72
2024/01/07 00:15:03;;;;;;;14.10;9.23;;;;;;;10.88;79.45;93115.78;5075613;28;20236;-67
2024/01/07 00:17:30;;;;;;;14.13;9.53;;;;;;;10.54;79.64;93062.66;5072443;28;20193;-71
2024/01/07 00:19:57;;;;;;;15.60;9.03;;;;;;;10.83;79.16;93114.69;5069725;28;20194;-69
2024/01/07 00:22:25;;;;;;;18.87;10.70;;;;;;;10.77;79.20;93103.44;5069687;28;20218;-69
2024/01/07 00:24:52;;;;;;;16.30;10.13;;;;;;;10.76;78.90;93109.53;5069538;28;20195;-69
2024/01/07 00:27:19;;;;;;;12.80;9.00;;;;;;;10.51;79.00;93074.00;5070612;28;20610;-69
2024/01/07 00:29:46;;;;;;;14.87;10.13;;;;;;;10.71;79.00;93107.50;5071424;28;20223;-70
2024/01/07 00:32:13;;;;;;;16.27;10.63;;;;;;;10.40;78.68;93053.19;5080286;28;20205;-68
2024/01/07 00:34:39;;;;;;;17.43;9.50;;;;;;;10.66;78.63;93091.88;5077230;28;20186;-67
2024/01/07 00:37:06;;;;;;;12.63;8.47;;;;;;;10.55;78.75;93074.44;5069153;28;20190;-69
2024/01/07 00:39:34;;;;;;;11.90;8.47;;;;;;;10.60;78.63;93084.13;5069857;28;20568;-65
2024/01/07 00:42:01;;;;;;;12.67;8.80;;;;;;;10.57;78.26;93069.94;5069537;28;20218;-67
2024/01/07 00:44:28;;;;;;;13.00;7.90;;;;;;;10.55;78.43;93072.69;5068015;28;20186;-67
2024/01/07 00:46:57;;;;;;;14.07;9.13;;;;;;;10.53;78.14;93064.41;5069411;28;20190;-69
2024/01/07 00:49:24;;;;;;;16.53;9.20;;;;;;;10.52;78.45;93057.69;5069570;28;20284;-66
2024/01/07 00:51:51;;;;;;;15.77;9.13;;;;;;;10.46;78.08;93045.63;5068905;28;20556;-70
2024/01/07 00:54:18;;;;;;;12.40;8.90;;;;;;;10.51;78.14;93042.53;5069706;28;20587;-70
2024/01/07 00:56:46;;;;;;;12.40;8.60;;;;;;;10.51;78.14;93035.66;5069459;28;20244;-70
2024/01/07 00:59:13;;;;;;;15.43;9.40;;;;;;;10.50;77.98;93031.53;5069565;28;20244;-70
2024/01/07 01:01:40;;;;;;;12.57;8.57;;;;;;;10.50;77.88;93033.31;5072315;28;20680;-67
2024/01/07 01:04:07;;;;;;;12.13;8.83;;;;;;;10.50;78.01;93033.31;5073614;28;20198;-65
2024/01/07 01:06:33;;;;;;;16.27;9.43;;;;;;;10.50;77.82;93036.66;5072032;28;20194;-66
2024/01/07 01:09:00;;;;;;;12.00;9.03;;;;;;;10.51;77.74;93029.75;5073041;28;20672;-64
2024/01/07 01:11:27;;;;;;;14.27;9.03;;;;;;;10.38;77.73;93004.84;5072581;28;20222;-68
2024/01/07 01:13:56;;;;;;;14.47;9.43;;;;;;;10.41;77.71;93006.25;5073229;28;20190;-68
2024/01/07 01:16:23;;;;;;;11.10;8.60;;;;;;;10.51;77.74;93010.13;5073616;28;20191;-67
2024/01/07 01:18:50;;;;;;;14.40;9.33;;;;;;;10.46;77.53;92991.19;5072529;28;20190;-70
2024/01/07 01:21:17;;;;;;;14.33;10.00;;;;;;;10.52;77.51;92998.91;5072649;28;20696;-69
2024/01/07 01:23:45;;;;;;;12.33;8.90;;;;;;;10.18;77.37;92942.47;5072504;28;20186;-66
2024/01/07 01:26:11;;;;;;;12.87;8.97;;;;;;;10.54;77.42;92991.09;5072436;28;20260;-65
2024/01/07 01:28:38;;;;;;;14.17;8.73;;;;;;;10.54;77.32;92975.75;5072377;28;20201;-64
2024/01/07 01:31:06;;;;;;;11.07;7.87;;;;;;;10.47;77.13;92954.44;5071983;28;20182;-69
2024/01/07 01:33:33;;;;;;;14.00;8.37;;;;;;;10.28;77.13;92918.25;5072006;28;20190;-66
2024/01/07 01:36:00;;;;;;;10.83;8.10;;;;;;;10.25;77.12;92899.94;5072135;28;20190;-70
2024/01/07 01:38:26;;;;;;;12.90;8.77;;;;;;;10.31;77.21;92904.31;5071999;28;20571;-70
2024/01/07 01:40:54;;;;;;;12.10;8.77;;;;;;;10.54;76.96;92947.63;5071963;28;20186;-65
2024/01/07 01:43:24;;;;;;;12.77;8.67;;;;;;;10.54;76.98;92939.97;5071679;28;20855;-67
2024/01/07 01:45:52;;;;;;;12.43;8.30;;;;;;;10.53;76.84;92931.50;5071749;28;20254;-72
2024/01/07 01:48:20;;;;;;;15.73;10.17;;;;;;;10.53;77.07;92928.97;5071440;28;20669;-72
2024/01/07 01:50:48;;;;;;;12.50;8.67;;;;;;;10.32;76.91;92889.78;5071652;28;20186;-70
2024/01/07 01:53:15;;;;;;;13.67;9.37;;;;;;;10.53;77.02;92910.25;5071760;28;20198;-69
2024/01/07 01:55:43;;;;;;;15.67;8.90;;;;;;;10.53;76.93;92900.03;5071849;28;20194;-69
2024/01/07 01:58:10;;;;;;;13.50;9.57;;;;;;;10.51;76.72;92900.22;5071587;28;20186;-70
2024/01/07 02:00:37;;;;;;;13.67;9.50;;;;;;;10.50;76.98;92892.75;5071318;28;20665;-71
2024/01/07 02:03:04;;;;;;;13.23;8.27;;;;;;;10.43;76.78;92885.00;5071593;28;20256;-64
2024/01/07 02:05:32;;;;;;;13.53;9.33;;;;;;;10.49;76.60;92901.38;5071453;28;20239;-67
2024/01/07 02:08:00;;;;;;;13.13;8.90;;;;;;;10.47;76.66;92896.44;5071468;28;20194;-69
2024/01/07 02:10:28;;;;;;;16.50;9.23;;;;;;;9.83;76.49;92801.81;5071200;28;20779;-68
2024/01/07 02:12:55;;;;;;;14.57;9.43;;;;;;;10.47;76.41;92908.44;5070243;28;20194;-65
2024/01/07 02:15:22;;;;;;;14.07;8.87;;;;;;;10.46;76.78;92894.88;5071063;28;20190;-64
2024/01/07 02:17:49;;;;;;;13.67;9.27;;;;;;;10.48;76.74;92887.00;5071137;28;20193;-66
2024/01/07 02:20:15;;;;;;;12.17;8.40;;;;;;;10.43;76.38;92877.34;5071157;28;20182;-68
2024/01/07 02:22:44;;;;;;;15.27;9.23;;;;;;;10.49;76.63;92874.06;5070047;28;20218;-68
2024/01/07 02:25:12;;;;;;;13.50;9.60;;;;;;;10.24;76.64;92814.88;5071240;28;20186;-68
2024/01/07 02:27:39;;;;;;;13.60;8.87;;;;;;;10.50;76.39;92832.22;5071189;28;20190;-65
2024/01/07 02:30:07;;;;;;;12.70;9.13;;;;;;;10.34;76.53;92789.00;5070976;28;20199;-64
2024/01/07 02:32:35;;;;;;;14.13;9.67;;;;;;;10.51;76.54;92825.31;5071115;28;20193;-67
2024/01/07 02:35:02;;;;;;;14.10;10.10;;;;;;;10.51;76.63;92812.56;5070686;28;20192;-73
2024/01/07 02:37:28;;;;;;;12.83;8.80;;;;;;;10.33;76.45;92784.88;5070720;28;20332;-65
2024/01/07 02:39:55;;;;;;;12.97;9.00;;;;;;;10.50;76.57;92806.66;5071633;28;20186;-72
2024/01/07 02:42:23;;;;;;;11.60;9.47;;;;;;;10.31;76.43;92781.69;5074851;28;20230;-77
2024/01/07 02:44:52;;;;;;;12.10;8.83;;;;;;;10.41;76.52;92799.31;5080021;28;20190;-69
2024/01/07 02:47:19;;;;;;;13.17;9.10;;;;;;;10.49;76.61;92807.63;5088919;28;20206;-64
2024/01/07 02:49:46;;;;;;;12.33;8.83;;;;;;;10.44;76.52;92796.34;5078272;28;20234;-68
2024/01/07 02:52:12;;;;;;;13.07;9.00;;;;;;;10.51;76.47;92792.09;5069861;28;20195;-64
2024/01/07 02:54:39;;;;;;;18.23;9.47;;;;;;;10.46;76.49;92802.09;5070438;28;20187;-64
2024/01/07 02:57:06;;;;;;;11.40;8.70;;;;;;;10.51;76.52;92821.00;5070176;28;20193;-67
2024/01/07 02:59:34;;;;;;;14.60;8.63;;;;;;;10.51;76.50;92810.00;5070142;28;20202;-68
2024/01/07 03:02:01;;;;;;;13.33;8.83;;;;;;;10.55;76.66;92832.44;5070333;28;20614;-68
2024/01/07 03:04:27;;;;;;;10.67;7.73;;;;;;;10.58;76.43;92843.25;5070776;28;20198;-69
2024/01/07 03:06:54;;;;;;;15.53;9.20;;;;;;;10.60;76.50;92851.56;5070002;28;20190;-65
2024/01/07 03:09:21;;;;;;;11.77;8.40;;;;;;;10.63;76.58;92853.75;5071410;28;20190;-67
2024/01/07 03:11:48;;;;;;;11.67;7.87;;;;;;;10.67;76.44;92857.53;5072348;28;20241;-69
2024/01/07 03:14:16;;;;;;;13.90;8.57;;;;;;;10.68;76.43;92866.75;5087071;28;20186;-69
2024/01/07 03:16:44;;;;;;;10.63;7.80;;;;;;;10.58;76.52;92840.69;5073214;28;20289;-70
2024/01/07 03:19:11;;;;;;;12.70;8.13;;;;;;;10.72;76.35;92862.88;5070113;28;20641;-69
2024/01/07 03:21:38;;;;;;;13.67;8.63;;;;;;;10.75;76.55;92876.09;5069932;28;20522;-70
2024/01/07 03:24:05;;;;;;;11.73;8.10;;;;;;;10.78;76.45;92873.13;5069704;28;20178;-68
2024/01/07 03:26:33;;;;;;;13.67;8.27;;;;;;;10.83;76.29;92871.78;5070258;28;20190;-68
2024/01/07 03:29:01;;;;;;;11.17;7.23;;;;;;;10.86;76.17;92867.13;5070115;28;20224;-70
2024/01/07 03:31:28;;;;;;;10.87;7.73;;;;;;;10.75;76.25;92849.69;5070114;28;20193;-71
2024/01/07 03:33:57;;;;;;;14.63;7.93;;;;;;;10.93;76.43;92865.41;5070152;28;20187;-68
2024/01/07 03:36:24;;;;;;;11.27;7.90;;;;;;;10.97;76.54;92856.41;5070331;28;20179;-69
2024/01/07 03:38:51;;;;;;;11.47;7.60;;;;;;;10.94;76.40;92840.63;5069620;28;20554;-71
2024/01/07 03:41:18;;;;;;;10.27;7.47;;;;;;;11.03;76.37;92847.97;5070300;28;20205;-67
2024/01/07 03:43:45;;;;;;;11.67;7.90;;;;;;;11.05;76.36;92846.03;5069579;28;20325;-73
2024/01/07 03:46:12;;;;;;;12.73;7.07;;;;;;;11.09;76.46;92838.75;5069936;28;20205;-68
2024/01/07 03:48:39;;;;;;;12.57;7.57;;;;;;;11.04;76.46;92815.50;5070036;28;20213;-66
2024/01/07 03:51:07;;;;;;;10.63;7.23;;;;;;;10.74;76.34;92763.75;5069666;28;20199;-68
2024/01/07 03:53:34;;;;;;;8.43;6.60;;;;;;;11.18;76.58;92829.16;5069688;28;20194;-68
2024/01/07 03:56:00;;;;;;;9.13;6.47;;;;;;;11.19;76.55;92834.13;5071828;28;20187;-72
2024/01/07 03:58:27;;;;;;;10.63;7.00;;;;;;;11.14;76.68;92817.72;5081552;28;20291;-68
2024/01/07 04:00:54;;;;;;;9.87;6.17;;;;;;;11.22;76.46;92815.03;5072054;28;20194;-71
2024/01/07 04:03:21;;;;;;;9.03;6.37;;;;;;;11.18;76.49;92804.41;5070424;28;20229;-69
2024/01/07 04:05:47;;;;;;;8.93;5.90;;;;;;;11.17;76.81;92804.56;5069427;28;20202;-68
2024/01/07 04:08:16;;;;;;;10.30;6.23;;;;;;;11.31;76.73;92824.13;5069902;28;20201;-68
2024/01/07 04:10:43;;;;;;;7.10;5.67;;;;;;;11.35;76.88;92816.88;5069467;28;20238;-67
2024/01/07 04:13:10;;;;;;;7.80;5.63;;;;;;;11.37;76.74;92807.25;5069471;28;20214;-67
2024/01/07 04:15:36;;;;;;;6.60;4.97;;;;;;;11.39;76.71;92800.16;5056649;28;20195;-71
2024/01/07 04:18:04;;;;;;;7.10;5.17;;;;;;;11.40;77.03;92797.44;5054866;28;20187;-69
2024/01/07 04:20:31;;;;;;;8.13;5.23;;;;;;;11.43;76.94;92791.91;5055163;28;20199;-68
2024/01/07 04:22:58;;;;;;;5.57;4.43;;;;;;;11.43;77.02;92784.25;5057685;28;20225;-69
2024/01/07 04:25:26;;;;;;;6.67;4.67;;;;;;;11.47;77.01;92797.44;5070457;28;20581;-69
2024/01/07 04:27:53;;;;;;;6.43;4.83;;;;;;;11.48;77.08;92802.38;5071369;28;20183;-68
2024/01/07 04:30:20;;;;;;;6.27;4.17;;;;;;;11.51;77.06;92796.09;5069683;28;20637;-66
2024/01/07 04:32:46;;;;;;;8.27;4.87;;;;;;;11.52;77.02;92790.78;5069394;28;20620;-69
2024/01/07 04:35:13;;;;;;;6.53;4.20;;;;;;;11.53;77.13;92784.69;5070361;28;20577;-70
2024/01/07 04:37:40;;;;;;;5.17;4.27;;;;;;;11.54;77.23;92780.38;5072439;28;20248;-68
2024/01/07 04:40:08;;;;;;;9.07;4.93;;;;;;;11.54;77.23;92783.72;5073287;28;20194;-71
2024/01/07 04:42:36;;;;;;;7.87;4.50;;;;;;;11.33;77.36;92744.63;5073193;28;20233;-68
2024/01/07 04:45:03;;;;;;;6.40;4.60;;;;;;;11.57;77.39;92779.97;5073249;28;20186;-69
2024/01/07 04:47:31;;;;;;;4.90;4.40;;;;;;;11.60;77.44;92792.38;5073102;28;20186;-71
2024/01/07 04:49:58;;;;;;;5.13;4.63;;;;;;;11.59;77.38;92788.25;5073282;28;20190;-67
2024/01/07 04:52:26;;;;;;;8.20;4.43;;;;;;;11.62;77.66;92787.09;5072437;28;20618;-67
2024/01/07 04:54:53;;;;;;;5.27;4.23;;;;;;;11.61;77.50;92785.50;5072700;28;20657;-63
2024/01/07 04:57:20;;;;;;;10.10;4.33;;;;;;;11.58;77.27;92784.13;5072770;28;20190;-71
2024/01/07 04:59:49;;;;;;;6.07;4.57;;;;;;;11.37;77.49;92753.53;5073099;28;20198;-67
2024/01/07 05:02:16;;;;;;;4.77;3.80;;;;;;;11.64;77.43;92803.03;5072681;28;20229;-70
2024/01/07 05:04:43;;;;;;;6.20;4.00;;;;;;;11.64;77.73;92795.38;5072583;28;20196;-72
2024/01/07 05:07:10;;;;;;;6.60;4.10;;;;;;;11.64;77.62;92774.88;5072804;28;20190;-70
2024/01/07 05:09:37;;;;;;;5.93;4.20;;;;;;;11.66;77.55;92780.63;5072250;28;20267;-68
2024/01/07 05:12:04;;;;;;;6.50;4.27;;;;;;;11.66;77.67;92783.97;5072715;28;20230;-72
2024/01/07 05:14:31;;;;;;;4.90;4.23;;;;;;;11.67;77.82;92775.28;5072342;28;20641;-70
2024/01/07 05:16:59;;;;;;;5.40;4.43;;;;;;;11.67;77.81;92785.53;5072044;28;20661;-68
2024/01/07 05:19:26;;;;;;;7.70;4.27;;;;;;;11.68;77.67;92781.19;5072680;28;20198;-67
2024/01/07 05:21:52;;;;;;;7.17;4.40;;;;;;;11.68;77.75;92779.44;5072355;28;20198;-68
2024/01/07 05:24:19;;;;;;;6.53;4.63;;;;;;;11.64;77.91;92788.47;5071854;28;20240;-71
2024/01/07 05:26:46;;;;;;;5.33;4.20;;;;;;;11.68;77.86;92782.00;5072662;28;20183;-65
2024/01/07 05:29:13;;;;;;;6.10;3.73;;;;;;;11.66;78.01;92760.13;5072328;28;20186;-66
2024/01/07 05:31:40;;;;;;;5.40;4.10;;;;;;;11.62;78.04;92759.72;5072483;28;20198;-71
2024/01/07 05:34:08;;;;;;;8.57;4.00;;;;;;;11.69;78.10;92777.66;5072259;28;20186;-68
2024/01/07 05:36:35;;;;;;;6.13;4.43;;;;;;;11.69;78.11;92775.09;5072298;28;20261;-68
2024/01/07 05:39:04;;;;;;;5.53;4.33;;;;;;;11.70;78.00;92780.03;5072319;28;20191;-69
2024/01/07 05:41:30;;;;;;;6.53;4.30;;;;;;;11.70;78.13;92759.56;5071854;28;20190;-71
2024/01/07 05:43:57;;;;;;;8.37;5.20;;;;;;;11.49;78.27;92726.41;5072071;28;20206;-67
2024/01/07 05:46:24;;;;;;;6.47;4.33;;;;;;;11.70;78.29;92761.31;5070712;28;20634;-67
2024/01/07 05:48:51;;;;;;;5.87;4.03;;;;;;;11.66;78.31;92760.13;5072008;28;20642;-66
2024/01/07 05:51:19;;;;;;;5.73;4.20;;;;;;;11.67;78.24;92765.06;5073255;28;20261;-66
2024/01/07 05:53:46;;;;;;;4.80;4.10;;;;;;;11.70;78.12;92768.97;5077852;28;20236;-67
2024/01/07 05:56:13;;;;;;;6.00;4.43;;;;;;;11.66;78.36;92763.47;5084335;28;20278;-69
2024/01/07 05:58:40;;;;;;;7.37;4.20;;;;;;;11.54;78.16;92752.22;5073078;28;20237;-70
2024/01/07 06:01:08;;;;;;;5.23;4.27;;;;;;;11.60;78.23;92755.78;5071171;28;20259;-69
2024/01/07 06:03:35;;;;;;;6.00;4.53;;;;;;;11.68;78.17;92769.19;5072061;28;20616;-64
2024/01/07 06:06:02;;;;;;;6.40;5.00;;;;;;;11.67;78.21;92777.06;5071399;28;20248;-69
2024/01/07 06:08:30;;;;;;;6.53;4.50;;;;;;;11.62;78.29;92771.75;5071835;28;20221;-65
2024/01/07 06:10:57;;;;;;;7.80;4.43;;;;;;;11.67;78.33;92759.16;5071487;28;20233;-65
2024/01/07 06:13:24;;;;;;;6.50;4.97;;;;;;;11.50;78.50;92743.34;5071223;28;20290;-66
2024/01/07 06:15:53;;;;;;;4.67;3.97;;;;;;;11.66;78.45;92765.25;5071006;28;20594;-67
2024/01/07 06:18:20;;;;;;;7.83;4.53;;;;;;;11.65;78.55;92767.00;5071125;28;20860;-65
2024/01/07 06:20:47;;;;;;;6.33;3.83;;;;;;;11.32;78.64;92702.13;5071183;28;20206;-65
2024/01/07 06:23:13;;;;;;;5.63;3.93;;;;;;;11.64;78.59;92750.06;5070436;28;20217;-65
2024/01/07 06:25:41;;;;;;;4.47;4.00;;;;;;;11.64;78.59;92769.75;5071347;28;20202;-68
2024/01/07 06:28:10;;;;;;;6.93;4.67;;;;;;;11.63;78.63;92773.31;5070887;28;20186;-66
2024/01/07 06:30:36;;;;;;;5.50;4.10;;;;;;;11.48;78.67;92750.41;5071066;28;20221;-66
2024/01/07 06:33:05;;;;;;;6.00;4.47;;;;;;;11.65;78.59;92784.91;5070704;28;20194;-68
2024/01/07 06:35:31;;;;;;;6.03;4.93;;;;;;;11.67;78.54;92792.44;5070815;28;20186;-64
2024/01/07 06:37:58;;;;;;;6.37;4.27;;;;;;;11.49;78.69;92769.91;5070606;28;20201;-69
2024/01/07 06:40:25;;;;;;;5.63;4.30;;;;;;;11.68;78.70;92799.91;5070815;28;20190;-69
2024/01/07 06:42:53;;;;;;;5.53;4.57;;;;;;;11.68;78.40;92802.47;5070221;28;20233;-67
2024/01/07 06:45:20;;;;;;;7.67;4.23;;;;;;;11.69;78.63;92804.03;5070196;28;20178;-70
2024/01/07 06:47:47;;;;;;;6.27;4.10;;;;;;;11.70;78.51;92797.97;5070866;28;20190;-71
2024/01/07 06:50:13;;;;;;;9.57;5.07;;;;;;;11.68;78.47;92791.44;5070997;28;20210;-70
2024/01/07 06:52:40;;;;;;;5.07;4.57;;;;;;;11.72;78.53;92806.22;5070878;28;20676;-72
2024/01/07 06:55:08;;;;;;;6.20;4.40;;;;;;;11.73;78.70;92795.00;5070196;28;20222;-71
2024/01/07 06:57:35;;;;;;;5.13;4.57;;;;;;;11.75;78.65;92803.28;5070482;28;20195;-71
2024/01/07 07:00:04;;;;;;;5.10;4.20;;;;;;;11.65;78.55;92781.56;5070257;28;20194;-72
2024/01/07 07:02:31;;;;;;;7.33;4.70;;;;;;;11.78;78.55;92786.75;5070493;28;20672;-68
2024/01/07 07:04:58;;;;;;;6.20;4.13;;;;;;;11.69;78.67;92785.34;5070413;28;20201;-69
2024/01/07 07:07:24;;;;;;;5.93;4.57;;;;;;;11.25;78.58;92705.44;5069820;28;20190;-68
2024/01/07 07:09:51;;;;;;;5.17;4.33;;;;;;;11.85;78.54;92794.50;5070809;28;20190;-67
2024/01/07 07:12:19;;;;;;;5.33;4.03;;;;;;;11.69;78.43;92755.41;5071449;28;20226;-71
2024/01/07 07:14:46;;;;;;;5.70;4.37;;;;;;;11.90;78.63;92795.50;5073175;28;20198;-71
2024/01/07 07:17:14;;;;;;;4.57;4.17;;;;;;;11.91;78.39;92776.56;5077192;28;20692;-69
2024/01/07 07:19:41;;;;;;;7.00;4.43;;;;;;;11.99;78.41;92790.97;5082015;28;20190;-71
2024/01/07 07:22:08;;;;;;;7.87;5.10;;;;;;;12.05;78.28;92774.84;5070270;28;20190;-67
2024/01/07 07:24:35;;;;;;;8.03;4.67;;;;;;;12.11;78.34;92783.53;5070413;28;20283;-71
2024/01/07 07:27:02;;;;;;;7.50;5.17;;;;;;;12.16;78.13;92781.16;5070319;28;20213;-67
2024/01/07 07:29:28;;;;;;;6.80;4.57;;;;;;;12.22;78.04;92788.09;5070072;28;20601;-68
2024/01/07 07:31:55;;;;;;;6.00;4.70;;;;;;;12.28;78.09;92793.22;5069614;28;20692;-67
2024/01/07 07:34:23;;;;;;;7.03;5.43;;;;;;;12.19;77.82;92766.19;5069535;28;20178;-68
2024/01/07 07:36:50;;;;;;;6.27;4.50;;;;;;;11.82;77.81;92703.44;5069664;28;20277;-71
2024/01/07 07:39:17;;;;;;;5.87;4.93;;;;;;;12.51;77.83;92792.84;5069754;28;20178;-71
2024/01/07 07:41:43;;;;;;;6.27;5.10;;;;;;;11.83;77.71;92663.28;5074188;28;20182;-67
2024/01/07 07:44:10;;;;;;;4.80;4.33;;;;;;;12.51;77.57;92759.50;5071249;28;20218;-68
2024/01/07 07:46:37;;;;;;;6.53;4.50;;;;;;;12.75;77.48;92780.44;5070263;28;20205;-70
2024/01/07 07:49:04;;;;;;;10.40;5.33;;;;;;;12.84;77.15;92789.50;5069517;28;20222;-67
2024/01/07 07:51:31;;;;;;;6.30;4.60;;;;;;;12.93;77.17;92790.88;5068879;28;20688;-70
2024/01/07 07:53:58;;;;;;;6.40;5.03;;;;;;;12.67;76.76;92735.25;5069478;28;20193;-68
2024/01/07 07:56:24;;;;;;;6.20;4.77;;;;;;;13.12;76.61;92783.34;5069716;28;20665;-67
2024/01/07 07:58:51;;;;;;;6.63;4.60;;;;;;;13.23;76.65;92768.16;5077006;28;20190;-70
2024/01/07 08:01:19;;;;;;;5.47;4.87;;;;;;;13.34;76.40;92771.09;5071089;28;20197;-70
2024/01/07 08:03:46;;;;;;;5.93;5.33;;;;;;;13.43;76.27;92772.47;5071369;28;20297;-68
2024/01/07 08:06:12;;;;;;;7.17;4.53;;;;;;;13.46;76.01;92767.69;5069849;28;20213;-69
2024/01/07 08:08:41;;;;;;;6.53;5.07;;;;;;;13.61;76.01;92780.31;5069805;28;20183;-70
2024/01/07 08:11:09;;;;;;;10.17;5.60;;;;;;;13.70;75.87;92788.56;5072365;28;20222;-69
2024/01/07 08:13:37;;;;;;;6.80;5.07;;;;;;;13.77;75.79;92782.44;5073778;28;20703;-70
2024/01/07 08:16:06;;;;;;;6.50;5.33;;;;;;;13.85;75.82;92778.03;5075276;28;20217;-65
2024/01/07 08:18:33;;;;;;;8.23;5.23;;;;;;;13.91;75.71;92790.06;5078694;28;20716;-72
2024/01/07 08:21:00;;;;;;;6.53;4.97;;;;;;;13.97;75.51;92784.91;5079411;28;20202;-70
2024/01/07 08:23:27;;;;;;;6.40;5.07;;;;;;;14.00;75.50;92771.66;5063547;28;20210;-65
2024/01/07 08:25:55;;;;;;;6.90;5.10;;;;;;;14.10;75.19;92767.84;5070010;28;20201;-68
2024/01/07 08:28:22;;;;;;;7.60;5.10;;;;;;;14.16;75.17;92777.28;5068550;28;20672;-66
2024/01/07 08:30:51;;;;;;;6.57;5.30;;;;;;;14.17;75.05;92771.16;5069956;28;20888;-68
2024/01/07 08:33:18;;;;;;;7.10;4.90;;;;;;;14.21;74.89;92760.25;5070810;28;20194;-67
2024/01/07 08:35:45;;;;;;;5.87;4.60;;;;;;;14.08;74.76;92728.72;5078046;28;20194;-66
2024/01/07 08:38:12;;;;;;;6.00;5.03;;;;;;;14.41;74.68;92774.75;5079336;28;20727;-70
2024/01/07 08:40:40;;;;;;;6.70;4.83;;;;;;;14.46;74.83;92790.34;5070227;28;20641;-69
2024/01/07 08:43:08;;;;;;;7.77;5.60;;;;;;;14.49;74.76;92787.41;5069264;28;20584;-71
2024/01/07 08:45:35;;;;;;;6.13;5.13;;;;;;;14.51;74.72;92791.34;5069547;28;20187;-69
2024/01/07 08:48:02;;;;;;;6.43;5.07;;;;;;;14.54;74.60;92788.34;5069178;28;20194;-71
2024/01/07 08:50:29;;;;;;;5.63;5.03;;;;;;;14.62;74.47;92771.09;5069272;28;20752;-69
2024/01/07 08:52:56;;;;;;;7.50;5.00;;;;;;;14.72;74.32;92768.81;5069797;28;20908;-68
2024/01/07 08:55:24;;;;;;;8.10;5.43;;;;;;;14.87;73.76;92765.94;5069307;28;20225;-66
2024/01/07 08:57:52;;;;;;;5.87;5.00;;;;;;;15.04;73.65;92765.19;5069408;28;20201;-69
2024/01/07 09:00:25;;;;;;;9.87;5.30;;;;;;;15.06;73.06;92732.28;5069381;28;20191;-70
2024/01/07 09:02:52;;;;;;;7.80;5.00;;;;;;;15.43;72.70;92762.44;5069147;28;20202;-72
2024/01/07 09:05:19;;;;;;;5.43;4.60;;;;;;;15.52;72.18;92745.69;5068314;28;20561;-68
2024/01/07 09:07:46;;;;;;;6.00;5.30;;;;;;;15.79;72.01;92769.38;5069169;28;20251;-69
2024/01/07 09:10:13;;;;;;;7.17;5.10;;;;;;;15.94;71.57;92777.53;5069039;28;20190;-69
2024/01/07 09:12:40;;;;;;;7.57;4.97;;;;;;;15.90;71.43;92744.69;5069507;28;20194;-70
2024/01/07 09:15:08;;;;;;;6.70;4.47;;;;;;;16.22;71.06;92771.03;5068844;28;20200;-70
2024/01/07 09:17:38;;;;;;;5.43;4.63;;;;;;;16.31;70.94;92774.88;5068822;28;20198;-72
2024/01/07 09:20:07;;;;;;;5.67;4.57;;;;;;;16.39;70.56;92774.56;5068445;28;20296;-68
2024/01/07 09:22:34;;;;;;;5.90;4.40;;;;;;;16.58;70.29;92789.97;5068610;28;20195;-68
2024/01/07 09:25:03;;;;;;;4.87;4.10;;;;;;;16.71;69.97;92780.25;5068765;28;20301;-67
2024/01/07 09:27:30;;;;;;;7.27;4.77;;;;;;;16.86;69.73;92771.31;5068577;28;20665;-69
2024/01/07 09:29:57;;;;;;;6.23;4.30;;;;;;;16.99;69.32;92765.94;5067843;28;20190;-66
2024/01/07 09:32:24;;;;;;;5.00;4.50;;;;;;;17.12;69.00;92776.03;5068745;28;20307;-69
2024/01/07 09:34:52;;;;;;;5.00;4.50;;;;;;;17.26;68.73;92782.53;5069380;28;20193;-64
2024/01/07 09:37:19;;;;;;;6.70;4.83;;;;;;;17.22;68.47;92741.88;5069278;28;20187;-64
2024/01/07 09:39:46;;;;;;;5.37;4.53;;;;;;;17.44;68.27;92765.34;5068571;28;20182;-64
2024/01/07 09:42:15;;;;;;;5.00;4.20;;;;;;;17.55;68.14;92769.72;5068337;28;20267;-63
2024/01/07 09:44:42;;;;;;;6.40;4.60;;;;;;;17.41;67.72;92738.19;5067625;28;20206;-63
2024/01/07 09:47:12;;;;;;;5.10;4.33;;;;;;;17.78;67.65;92769.69;5067836;28;20585;-66
2024/01/07 09:49:38;;;;;;;5.43;4.70;;;;;;;17.90;67.35;92766.28;5068577;28;20237;-63
2024/01/07 09:52:09;;;;;;;5.50;5.00;;;;;;;17.97;67.14;92765.16;5067824;28;20192;-64
2024/01/07 09:54:37;;;;;;;6.53;5.20;;;;;;;17.86;66.83;92727.19;5067893;28;20186;-64
2024/01/07 09:57:07;;;;;;;4.87;4.37;;;;;;;17.96;66.71;92734.34;5067333;28;20194;-66
2024/01/07 09:59:34;;;;;;;5.37;4.83;;;;;;;18.18;66.27;92752.59;5068205;28;20605;-64
2024/01/07 10:02:01;;;;;;;5.13;4.63;;;;;;;18.38;66.09;92758.09;5069319;28;20186;-68
2024/01/07 10:04:28;;;;;;;4.93;4.43;;;;;;;18.47;65.74;92759.31;5068625;28;20244;-67
2024/01/07 10:06:55;;;;;;;6.83;5.30;;;;;;;18.33;65.59;92726.19;5067909;28;20190;-65
2024/01/07 10:09:26;;;;;;;6.93;5.10;;;;;;;18.59;65.30;92748.88;5068597;28;20225;-68
2024/01/07 10:11:53;;;;;;;6.40;4.57;;;;;;;18.63;65.31;92750.00;5070395;28;20229;-69
2024/01/07 10:14:22;;;;;;;6.87;4.70;;;;;;;18.65;65.06;92727.25;5067560;28;20216;-68
2024/01/07 10:16:49;;;;;;;4.23;3.67;;;;;;;18.74;64.90;92735.44;5068651;28;20301;-63
2024/01/07 10:19:21;;;;;;;5.63;4.23;;;;;;;18.66;64.75;92695.16;5067196;28;20246;-68
2024/01/07 10:22:02;;;;;;;5.77;4.37;;;;;;;18.35;64.54;92641.34;5068239;28;20269;-63
2024/01/07 10:24:38;;;;;;;11.80;6.40;;;;;;;18.64;63.82;92666.13;5066817;28;20743;-63
2024/01/07 10:27:05;;;;;;;14.50;6.30;;;;;;;18.92;63.98;92711.09;5066395;28;20778;-65
2024/01/07 10:29:32;;;;;;;10.97;6.17;;;;;;;18.89;64.00;92701.22;5067681;28;20198;-65
2024/01/07 10:32:02;;;;;;;8.30;4.57;;;;;;;18.97;64.10;92708.59;5067326;28;20277;-67
2024/01/07 10:34:30;;;;;;;7.87;3.70;;;;;;;19.06;63.88;92707.16;5066882;28;20292;-67
2024/01/07 10:36:59;;;;;;;7.83;3.97;;;;;;;19.17;63.64;92710.66;5066536;28;20190;-73
2024/01/07 10:39:26;;;;;;;7.83;4.77;;;;;;;19.23;63.76;92705.31;5066897;28;20199;-70
2024/01/07 10:41:57;;;;;;;11.83;5.10;;;;;;;19.26;63.56;92696.28;5066125;28;20195;-63
2024/01/07 10:44:26;;;;;;;8.73;4.83;;;;;;;19.27;63.09;92696.03;5064096;28;20647;-64
2024/01/07 10:46:55;;;;;;;7.15;4.80;;;;;;;19.26;63.08;92689.28;5064517;28;20225;-70
2024/01/07 10:49:23;;;;;;;7.00;5.20;;;;;;;19.22;63.00;92690.00;5066061;28;20996;-69
2024/01/07 10:52:04;;;;;;;6.13;4.87;;;;;;;19.21;62.59;92691.00;5066221;28;20182;-68
2024/01/07 10:54:33;;;;;;;7.45;5.03;;;;;;;19.21;62.49;92702.19;5066120;28;20676;-66
2024/01/07 10:57:08;;;;;;;5.27;4.63;;;;;;;19.16;62.27;92703.91;5066779;28;20653;-70
2024/01/07 10:59:36;;;;;;;6.47;5.07;;;;;;;19.12;62.19;92690.63;5065194;28;20182;-68
2024/01/07 11:02:03;;;;;;;6.73;4.77;;;;;;;19.32;64.00;92695.31;5067161;28;20191;-67
2024/01/07 11:04:38;;;;;;;6.10;4.83;;;;;;;19.46;64.46;92696.50;5066421;28;20299;-69
2024/01/07 11:07:18;;;;;;;7.10;4.72;;;;;;;19.57;64.46;92700.03;5066600;28;20224;-70
2024/01/07 11:09:55;;;;;;;6.57;4.63;;;;;;;19.53;64.54;92696.34;5066117;28;20186;-66
2024/01/07 11:12:23;;;;;;;7.65;4.43;;;;;;;19.47;64.48;92698.09;5067913;28;20228;-68
2024/01/07 11:14:52;;;;;;;7.22;4.93;;;;;;;19.46;64.47;92696.50;5072628;28;20197;-68
2024/01/07 11:17:42;;;;;;;6.72;4.40;;;;;;;19.17;64.36;92662.22;5071123;28;20722;-70
2024/01/07 11:20:15;;;;;;;6.77;4.90;;;;;;;19.39;64.37;92692.56;5084380;28;20194;-71
2024/01/07 11:22:41;;;;;;;5.70;4.53;;;;;;;19.38;64.40;92693.56;5068455;28;20190;-69
2024/01/07 11:25:30;;;;;;;6.43;3.80;;;;;;;19.30;63.99;92699.97;5069418;28;20222;-69
2024/01/07 11:27:59;;;;;;;5.88;4.68;;;;;;;19.18;64.31;92704.47;5067229;28;20194;-69
2024/01/07 11:30:27;;;;;;;5.83;4.13;;;;;;;19.12;64.36;92697.63;5069302;28;20198;-69